createdAt,value
2023-04-22T00:00:20.969Z,53.71
2023-04-22T00:02:48.628Z,53.94
2023-04-22T00:05:20.301Z,53.42
2023-04-22T00:07:48.386Z,53.45
2023-04-22T00:10:15.894Z,53.36
2023-04-22T00:12:43.419Z,53.22
2023-04-22T00:15:11.401Z,52.97
2023-04-22T00:17:40.224Z,53.33
2023-04-22T00:20:10.765Z,53.19
2023-04-22T00:22:38.363Z,53.08
2023-04-22T00:25:06.810Z,52.96
2023-04-22T00:27:34.325Z,52.65
2023-04-22T00:30:01.931Z,52.47
2023-04-22T00:32:29.676Z,52.03
2023-04-22T00:34:57.575Z,52.23
2023-04-22T00:37:25.661Z,52.01
2023-04-22T00:39:53.183Z,51.98
2023-04-22T00:42:21.812Z,52.02
2023-04-22T00:44:51.215Z,52.06
2023-04-22T00:47:20.701Z,51.95
2023-04-22T00:49:50.057Z,51.96
2023-04-22T00:52:17.575Z,52.10
2023-04-22T00:54:45.212Z,51.96
2023-04-22T00:57:12.920Z,51.50
2023-04-22T00:59:40.649Z,50.73
2023-04-22T01:02:08.739Z,50.18
2023-04-22T01:04:36.639Z,50.33
2023-04-22T01:07:04.247Z,49.62
2023-04-22T01:09:31.732Z,49.36
2023-04-22T01:11:59.429Z,48.88
2023-04-22T01:14:27.330Z,48.92
2023-04-22T01:16:55.980Z,48.53
2023-04-22T01:19:23.919Z,48.36
2023-04-22T01:21:53.033Z,48.04
2023-04-22T01:24:21.203Z,48.05
2023-04-22T01:26:49.183Z,48.09
2023-04-22T01:29:16.719Z,48.11
2023-04-22T01:31:44.961Z,47.95
2023-04-22T01:34:12.516Z,47.68
2023-04-22T01:36:40.099Z,47.69
2023-04-22T01:39:08.412Z,48.11
2023-04-22T01:41:36.196Z,47.92
2023-04-22T01:44:04.780Z,47.77
2023-04-22T01:46:33.901Z,48.01
2023-04-22T01:49:01.545Z,47.91
2023-04-22T01:51:29.085Z,47.60
2023-04-22T01:53:57.729Z,47.62
2023-04-22T01:56:25.296Z,47.37
2023-04-22T01:58:52.834Z,47.31
2023-04-22T02:01:20.486Z,47.23
2023-04-22T02:03:48.084Z,47.25
2023-04-22T02:06:15.706Z,47.18
2023-04-22T02:08:43.211Z,47.37
2023-04-22T02:11:10.719Z,47.39
2023-04-22T02:13:41.876Z,47.65
2023-04-22T02:16:09.640Z,47.78
2023-04-22T02:18:37.263Z,47.63
2023-04-22T02:21:05.550Z,48.03
2023-04-22T02:23:33.129Z,48.09
2023-04-22T02:26:00.770Z,48.15
2023-04-22T02:28:29.150Z,48.38
2023-04-22T02:30:58.190Z,48.52
2023-04-22T02:33:25.860Z,48.68
2023-04-22T02:35:54.194Z,48.86
2023-04-22T02:38:21.784Z,48.80
2023-04-22T02:40:49.365Z,48.89
2023-04-22T02:43:16.949Z,48.53
2023-04-22T02:45:45.141Z,48.76
2023-04-22T02:48:12.758Z,48.88
2023-04-22T02:50:40.455Z,49.07
2023-04-22T02:53:08.925Z,49.08
2023-04-22T02:55:36.655Z,49.30
2023-04-22T02:58:04.217Z,49.57
2023-04-22T03:00:31.902Z,49.43
2023-04-22T03:02:59.662Z,49.55
2023-04-22T03:05:30.701Z,49.64
2023-04-22T03:07:58.534Z,49.58
2023-04-22T03:10:26.040Z,49.82
2023-04-22T03:12:53.517Z,49.77
2023-04-22T03:15:22.019Z,49.51
2023-04-22T03:17:50.198Z,49.39
2023-04-22T03:20:20.569Z,49.13
2023-04-22T03:22:48.646Z,48.90
2023-04-22T03:25:17.420Z,48.96
2023-04-22T03:27:51.023Z,49.16
2023-04-22T03:30:18.992Z,48.91
2023-04-22T03:32:47.897Z,48.90
2023-04-22T03:35:21.856Z,49.06
2023-04-22T03:37:51.387Z,48.87
2023-04-22T03:40:24.163Z,48.97
2023-04-22T03:42:51.693Z,48.85
2023-04-22T03:45:21.502Z,48.94
2023-04-22T03:47:58.062Z,49.09
2023-04-22T03:50:34.533Z,49.03
2023-04-22T03:53:02.282Z,49.21
2023-04-22T03:55:29.917Z,49.16
2023-04-22T03:57:57.491Z,49.30
2023-04-22T04:00:25.214Z,49.40
2023-04-22T04:03:05.089Z,49.20
2023-04-22T04:05:33.010Z,49.39
2023-04-22T04:08:00.716Z,49.50
2023-04-22T04:10:28.517Z,49.32
2023-04-22T04:12:58.273Z,49.49
2023-04-22T04:15:27.505Z,49.47
2023-04-22T04:17:56.633Z,49.62
2023-04-22T04:20:26.181Z,49.62
2023-04-22T04:22:53.760Z,49.69
2023-04-22T04:25:21.457Z,49.62
2023-04-22T04:27:51.731Z,49.71
2023-04-22T04:30:21.357Z,49.76
2023-04-22T04:32:53.932Z,49.68
2023-04-22T04:35:22.023Z,49.85
2023-04-22T04:37:54.236Z,49.78
2023-04-22T04:40:22.034Z,49.82
2023-04-22T04:42:58.056Z,49.71
2023-04-22T04:45:32.791Z,49.72
2023-04-22T04:48:02.591Z,49.68
2023-04-22T04:50:36.163Z,49.57
2023-04-22T04:53:04.418Z,49.51
2023-04-22T04:55:38.084Z,49.75
2023-04-22T04:58:11.074Z,49.50
2023-04-22T05:00:38.671Z,49.40
2023-04-22T05:03:09.673Z,49.28
2023-04-22T05:05:38.259Z,49.19
2023-04-22T05:08:05.853Z,49.09
2023-04-22T05:10:35.844Z,49.07
2023-04-22T05:13:04.825Z,48.98
2023-04-22T05:15:33.656Z,49.17
2023-04-22T05:18:01.378Z,49.08
2023-04-22T05:20:28.994Z,49.10
2023-04-22T05:22:56.754Z,49.02
2023-04-22T05:25:24.392Z,49.07
2023-04-22T05:27:59.221Z,48.84
2023-04-22T05:30:30.590Z,48.85
2023-04-22T05:32:58.141Z,48.93
2023-04-22T05:35:26.913Z,48.92
2023-04-22T05:37:54.372Z,48.47
2023-04-22T05:40:21.992Z,48.70
2023-04-22T05:42:49.550Z,48.60
2023-04-22T05:45:17.679Z,48.72
2023-04-22T05:47:45.620Z,48.78
2023-04-22T05:50:14.228Z,48.84
2023-04-22T05:52:49.598Z,48.66
2023-04-22T05:55:18.670Z,48.74
2023-04-22T05:57:46.219Z,48.85
2023-04-22T06:00:38.029Z,48.85
2023-04-22T06:03:32.244Z,48.83
2023-04-22T06:06:00.739Z,48.83
2023-04-22T06:08:30.831Z,49.17
2023-04-22T06:10:58.503Z,49.04
2023-04-22T06:13:28.974Z,49.18
2023-04-22T06:15:56.596Z,49.16
2023-04-22T06:18:24.845Z,48.99
2023-04-22T06:20:54.193Z,49.02
2023-04-22T06:23:23.018Z,49.07
2023-04-22T06:25:50.516Z,49.30
2023-04-22T06:28:18.668Z,49.40
2023-04-22T06:30:48.327Z,49.43
2023-04-22T06:33:16.856Z,49.58
2023-04-22T06:35:44.660Z,49.41
2023-04-22T06:38:12.312Z,49.54
2023-04-22T06:40:48.950Z,49.36
2023-04-22T06:43:23.488Z,49.48
2023-04-22T06:46:09.393Z,49.51
2023-04-22T06:48:59.392Z,49.20
2023-04-22T06:51:33.052Z,49.36
2023-04-22T06:54:02.969Z,49.25
2023-04-22T06:56:30.994Z,49.28
2023-04-22T06:58:58.540Z,49.44
2023-04-22T07:01:26.470Z,49.45
2023-04-22T07:03:54.202Z,49.42
2023-04-22T07:06:21.904Z,49.34
2023-04-22T07:08:49.627Z,49.54
2023-04-22T07:11:17.265Z,49.79
2023-04-22T07:13:59.016Z,49.45
2023-04-22T07:16:27.861Z,49.64
2023-04-22T07:18:55.560Z,49.62
2023-04-22T07:21:23.224Z,49.70
2023-04-22T07:23:51.789Z,49.67
2023-04-22T07:26:19.286Z,49.41
2023-04-22T07:28:46.802Z,49.27
2023-04-22T07:31:14.388Z,49.06
2023-04-22T07:33:42.021Z,48.81
2023-04-22T07:36:09.567Z,49.13
2023-04-22T07:38:37.172Z,49.02
2023-04-22T07:41:04.775Z,49.00
2023-04-22T07:43:32.291Z,48.90
2023-04-22T07:46:00.058Z,48.36
2023-04-22T07:48:27.706Z,48.08
2023-04-22T07:50:55.184Z,48.02
2023-04-22T07:58:16.777Z,47.58
2023-04-22T08:00:44.404Z,47.80
2023-04-22T08:03:12.258Z,47.32
2023-04-22T08:05:39.993Z,47.51
2023-04-22T08:08:07.873Z,47.22
2023-04-22T08:10:35.552Z,47.25
2023-04-22T08:13:03.105Z,47.05
2023-04-22T08:15:31.139Z,47.09
2023-04-22T08:17:58.872Z,46.88
2023-04-22T08:20:26.691Z,46.89
2023-04-22T08:22:58.163Z,46.89
2023-04-22T08:25:26.421Z,47.06
2023-04-22T08:27:54.041Z,46.72
2023-04-22T08:30:21.652Z,45.92
2023-04-22T08:32:49.388Z,45.37
2023-04-22T08:35:16.990Z,46.11
2023-04-22T08:37:44.606Z,46.04
2023-04-22T08:40:12.207Z,46.03
2023-04-22T08:42:40.340Z,45.89
2023-04-22T08:45:09.665Z,45.47
2023-04-22T08:47:39.269Z,45.85
2023-04-22T08:50:09.553Z,45.28
2023-04-22T08:52:37.621Z,44.66
2023-04-22T08:55:06.142Z,44.30
2023-04-22T08:57:35.822Z,44.28
2023-04-22T09:00:05.196Z,43.55
2023-04-22T09:02:33.434Z,43.30
2023-04-22T09:05:03.504Z,43.71
2023-04-22T09:07:32.116Z,43.72
2023-04-22T09:09:59.816Z,43.40
2023-04-22T09:12:27.582Z,43.13
2023-04-22T09:14:56.141Z,43.02
2023-04-22T09:17:34.872Z,42.32
2023-04-22T09:20:06.021Z,42.16
2023-04-22T09:22:46.877Z,41.82
2023-04-22T09:25:26.347Z,41.89
2023-04-22T09:27:57.183Z,41.63
2023-04-22T09:30:33.009Z,41.72
2023-04-22T09:33:04.301Z,41.48
2023-04-22T09:35:35.383Z,41.84
2023-04-22T09:38:07.961Z,41.83
2023-04-22T09:40:37.513Z,40.96
2023-04-22T09:43:08.055Z,41.12
2023-04-22T09:45:41.715Z,40.93
2023-04-22T09:48:18.574Z,40.79
2023-04-22T09:50:49.634Z,39.91
2023-04-22T09:53:20.334Z,39.82
2023-04-22T09:55:51.765Z,39.84
2023-04-22T09:58:23.536Z,39.39
2023-04-22T10:00:57.047Z,38.63
2023-04-22T10:03:24.841Z,39.56
2023-04-22T10:05:52.398Z,39.04
2023-04-22T10:08:19.976Z,38.73
2023-04-22T10:10:47.617Z,38.49
2023-04-22T10:13:15.694Z,37.81
2023-04-22T10:15:53.803Z,37.51
2023-04-22T10:18:27.048Z,36.11
2023-04-22T10:20:57.270Z,35.97
2023-04-22T10:23:25.671Z,35.15
2023-04-22T10:25:55.257Z,35.12
2023-04-22T10:28:27.473Z,34.75
2023-04-22T10:30:55.113Z,34.78
2023-04-22T10:33:27.588Z,33.86
2023-04-22T10:36:14.911Z,34.48
2023-04-22T10:39:02.555Z,33.69
2023-04-22T10:41:35.166Z,33.72
2023-04-22T10:44:07.507Z,33.43
2023-04-22T10:46:37.013Z,33.21
2023-04-22T10:49:20.827Z,33.79
2023-04-22T10:51:51.036Z,34.03
2023-04-22T10:54:30.588Z,32.94
2023-04-22T10:57:15.317Z,33.22
2023-04-22T10:59:50.108Z,34.27
2023-04-22T11:02:19.626Z,33.46
2023-04-22T11:04:48.287Z,32.80
2023-04-22T11:07:29.959Z,33.27
2023-04-22T11:10:06.909Z,33.10
2023-04-22T11:12:41.763Z,32.80
2023-04-22T11:15:17.598Z,32.97
2023-04-22T11:17:50.245Z,32.88
2023-04-22T11:20:18.592Z,32.56
2023-04-22T11:22:50.589Z,32.80
2023-04-22T11:25:18.315Z,32.34
2023-04-22T11:27:46.221Z,31.48
2023-04-22T11:30:20.792Z,31.20
2023-04-22T11:32:55.239Z,31.45
2023-04-22T11:35:29.566Z,31.28
2023-04-22T11:38:03.171Z,31.36
2023-04-22T11:40:44.696Z,31.17
2023-04-22T11:43:14.083Z,31.08
2023-04-22T11:45:42.134Z,31.48
2023-04-22T11:48:11.508Z,31.30
2023-04-22T11:50:42.390Z,30.58
2023-04-22T11:53:15.990Z,31.16
2023-04-22T11:55:45.592Z,31.03
2023-04-22T11:58:17.167Z,31.49
2023-04-22T12:00:48.552Z,32.16
2023-04-22T12:03:29.272Z,31.97
2023-04-22T12:06:04.424Z,31.76
2023-04-22T12:08:42.242Z,32.10
2023-04-22T12:11:12.369Z,31.39
2023-04-22T12:13:46.243Z,31.40
2023-04-22T12:16:18.751Z,32.05
2023-04-22T12:18:52.616Z,31.89
2023-04-22T12:21:28.214Z,31.91
2023-04-22T12:24:08.351Z,32.58
2023-04-22T12:26:35.909Z,33.20
2023-04-22T12:29:03.689Z,33.15
2023-04-22T12:31:31.291Z,33.49
2023-04-22T12:34:00.218Z,33.88
2023-04-22T12:36:28.036Z,33.47
2023-04-22T12:38:55.527Z,33.53
2023-04-22T12:41:23.585Z,34.23
2023-04-22T12:43:52.462Z,34.28
2023-04-22T12:46:20.265Z,34.30
2023-04-22T12:48:47.776Z,34.37
2023-04-22T12:51:15.257Z,34.65
2023-04-22T12:53:42.757Z,34.55
2023-04-22T12:56:10.640Z,34.62
2023-04-22T12:58:38.119Z,34.26
2023-04-22T13:01:06.086Z,33.67
2023-04-22T13:03:33.677Z,33.30
2023-04-22T13:06:01.252Z,33.36
2023-04-22T13:08:29.757Z,32.87
2023-04-22T13:10:57.314Z,32.83
2023-04-22T13:13:25.260Z,32.12
2023-04-22T13:15:54.380Z,32.75
2023-04-22T13:18:23.407Z,32.71
2023-04-22T13:20:51.472Z,32.50
2023-04-22T13:23:21.415Z,32.45
2023-04-22T13:25:50.095Z,31.73
2023-04-22T13:28:17.633Z,31.26
2023-04-22T13:30:45.305Z,30.89
2023-04-22T13:33:12.787Z,30.84
2023-04-22T13:35:40.414Z,30.66
2023-04-22T13:38:07.962Z,30.91
2023-04-22T13:40:35.856Z,30.36
2023-04-22T13:43:03.656Z,30.51
2023-04-22T13:45:31.428Z,30.20
2023-04-22T13:47:59.039Z,30.67
2023-04-22T13:50:26.619Z,30.40
2023-04-22T13:52:54.379Z,30.08
2023-04-22T13:55:21.897Z,29.56
2023-04-22T13:57:51.821Z,29.71
2023-04-22T14:00:20.541Z,29.37
2023-04-22T14:02:48.561Z,29.74
2023-04-22T14:05:16.517Z,29.88
2023-04-22T14:07:44.064Z,29.66
2023-04-22T14:10:13.624Z,29.80
2023-04-22T14:12:41.730Z,29.44
2023-04-22T14:15:11.186Z,30.12
2023-04-22T14:17:40.382Z,29.78
2023-04-22T14:20:11.004Z,29.72
2023-04-22T14:22:38.619Z,30.11
2023-04-22T14:25:07.550Z,30.25
2023-04-22T14:27:35.409Z,30.18
2023-04-22T14:30:04.778Z,30.45
2023-04-22T14:32:32.612Z,30.72
2023-04-22T14:35:00.398Z,30.58
2023-04-22T14:37:27.929Z,30.18
2023-04-22T14:39:55.502Z,29.98
2023-04-22T14:42:25.272Z,29.97
2023-04-22T14:44:52.893Z,29.77
2023-04-22T14:47:20.737Z,29.99
2023-04-22T14:49:48.237Z,29.97
2023-04-22T14:52:15.767Z,29.69
2023-04-22T14:54:43.351Z,30.23
2023-04-22T14:57:10.953Z,29.81
2023-04-22T14:59:38.848Z,30.07
2023-04-22T15:02:07.178Z,29.98
2023-04-22T15:04:34.900Z,30.54
2023-04-22T15:07:02.664Z,30.05
2023-04-22T15:09:30.245Z,29.68
2023-04-22T15:11:59.467Z,30.22
2023-04-22T15:14:27.042Z,30.24
2023-04-22T15:16:54.552Z,30.43
2023-04-22T15:19:22.064Z,30.24
2023-04-22T15:21:49.599Z,30.49
2023-04-22T15:24:17.121Z,30.67
2023-04-22T15:26:44.664Z,30.53
2023-04-22T15:29:12.497Z,30.06
2023-04-22T15:31:40.110Z,30.26
2023-04-22T15:34:07.639Z,30.51
2023-04-22T15:36:35.344Z,30.41
2023-04-22T15:39:05.267Z,30.57
2023-04-22T15:41:36.510Z,30.47
2023-04-22T15:44:05.538Z,30.77
2023-04-22T15:46:34.656Z,30.95
2023-04-22T15:49:03.204Z,31.05
2023-04-22T15:51:31.309Z,31.37
2023-04-22T15:53:58.862Z,30.96
2023-04-22T15:56:26.387Z,31.38
2023-04-22T15:58:53.945Z,31.49
2023-04-22T16:01:21.565Z,31.91
2023-04-22T16:03:49.594Z,31.85
2023-04-22T16:06:18.499Z,32.15
2023-04-22T16:08:46.104Z,31.97
2023-04-22T16:11:15.281Z,31.89
2023-04-22T16:13:43.636Z,31.55
2023-04-22T16:16:11.216Z,31.50
2023-04-22T16:18:39.507Z,31.44
2023-04-22T16:21:07.930Z,31.58
2023-04-22T16:23:35.963Z,31.51
2023-04-22T16:26:05.572Z,31.96
2023-04-22T16:28:33.329Z,32.49
2023-04-22T16:31:00.929Z,32.60
2023-04-22T16:33:28.668Z,32.46
2023-04-22T16:36:06.053Z,33.09
2023-04-22T16:38:33.562Z,33.99
2023-04-22T16:41:01.043Z,34.24
2023-04-22T16:43:28.809Z,34.49
2023-04-22T16:45:56.403Z,34.96
2023-04-22T16:48:23.997Z,35.16
2023-04-22T16:50:52.575Z,35.38
2023-04-22T16:53:20.354Z,35.48
2023-04-22T16:55:47.830Z,35.75
2023-04-22T16:58:15.389Z,35.29
2023-04-22T17:00:42.968Z,35.23
2023-04-22T17:03:11.784Z,35.28
2023-04-22T17:05:39.485Z,35.10
2023-04-22T17:08:07.006Z,35.36
2023-04-22T17:10:35.206Z,35.54
2023-04-22T17:13:03.159Z,35.16
2023-04-22T17:15:30.635Z,34.80
2023-04-22T17:17:58.154Z,35.33
2023-04-22T17:20:25.761Z,35.08
2023-04-22T17:22:53.295Z,35.38
2023-04-22T17:25:20.798Z,35.07
2023-04-22T17:27:48.282Z,35.56
2023-04-22T17:30:15.799Z,35.67
2023-04-22T17:32:43.371Z,35.83
2023-04-22T17:35:10.925Z,35.90
2023-04-22T17:37:39.702Z,35.62
2023-04-22T17:40:08.624Z,36.30
2023-04-22T17:42:45.598Z,36.67
2023-04-22T17:45:13.682Z,36.58
2023-04-22T17:47:41.358Z,36.65
2023-04-22T17:50:09.375Z,36.78
2023-04-22T17:52:37.044Z,37.32
2023-04-22T17:55:05.067Z,36.40
2023-04-22T17:57:32.572Z,36.31
2023-04-22T18:00:00.188Z,35.91
2023-04-22T18:02:28.085Z,35.74
2023-04-22T18:04:55.915Z,36.05
2023-04-22T18:07:23.505Z,35.73
2023-04-22T18:09:51.093Z,36.10
2023-04-22T18:12:20.438Z,36.13
2023-04-22T18:14:47.955Z,36.23
2023-04-22T18:17:19.935Z,35.96
2023-04-22T18:19:51.123Z,36.00
2023-04-22T18:22:19.141Z,35.97
2023-04-22T18:24:46.717Z,36.29
2023-04-22T18:27:14.203Z,36.30
2023-04-22T18:29:42.036Z,36.63
2023-04-22T18:32:11.136Z,36.46
2023-04-22T18:34:39.656Z,36.87
2023-04-22T18:37:07.301Z,36.66
2023-04-22T18:39:34.769Z,37.25
2023-04-22T18:42:02.624Z,37.43
2023-04-22T18:44:30.340Z,38.00
2023-04-22T18:46:58.336Z,38.90
2023-04-22T18:49:26.262Z,39.36
2023-04-22T18:51:53.962Z,39.94
2023-04-22T18:54:21.521Z,40.79
2023-04-22T18:56:49.034Z,40.56
2023-04-22T18:59:16.567Z,40.43
2023-04-22T19:01:44.703Z,40.40
2023-04-22T19:04:12.373Z,40.26
2023-04-22T19:06:40.285Z,40.86
2023-04-22T19:09:07.851Z,40.78
2023-04-22T19:11:35.408Z,41.06
2023-04-22T19:14:03.017Z,41.38
2023-04-22T19:16:30.679Z,42.33
2023-04-22T19:18:58.212Z,42.51
2023-04-22T19:21:26.933Z,43.26
2023-04-22T19:23:54.505Z,43.22
2023-04-22T19:26:22.261Z,42.87
2023-04-22T19:28:49.833Z,43.50
2023-04-22T19:31:17.999Z,43.78
2023-04-22T19:33:45.934Z,43.81
2023-04-22T19:36:13.410Z,44.33
2023-04-22T19:38:40.964Z,44.48
2023-04-22T19:41:09.056Z,44.67
2023-04-22T19:43:37.734Z,44.45
2023-04-22T19:46:05.360Z,44.88
2023-04-22T19:48:33.584Z,44.90
2023-04-22T19:51:02.211Z,44.57
2023-04-22T19:53:31.239Z,44.23
2023-04-22T19:55:58.948Z,44.27
2023-04-22T19:58:28.399Z,44.06
2023-04-22T20:00:56.401Z,43.52
2023-04-22T20:03:24.473Z,43.50
2023-04-22T20:05:53.225Z,43.19
2023-04-22T20:08:27.292Z,43.56
2023-04-22T20:10:55.664Z,43.59
2023-04-22T20:13:23.663Z,43.42
2023-04-22T20:15:51.362Z,43.17
2023-04-22T20:18:20.131Z,43.09
2023-04-22T20:20:49.724Z,43.41
2023-04-22T20:23:21.545Z,43.55
2023-04-22T20:25:50.812Z,43.43
2023-04-22T20:28:18.990Z,43.67
2023-04-22T20:30:46.666Z,43.26
2023-04-22T20:33:16.715Z,44.09
2023-04-22T20:35:46.327Z,44.17
2023-04-22T20:38:15.727Z,44.14
2023-04-22T20:40:46.161Z,44.13
2023-04-22T20:43:14.198Z,44.18
2023-04-22T20:45:41.688Z,44.30
2023-04-22T20:48:09.269Z,44.28
2023-04-22T20:50:36.730Z,43.96
2023-04-22T20:53:04.365Z,43.87
2023-04-22T20:55:31.859Z,43.67
2023-04-22T20:57:59.413Z,43.68
2023-04-22T21:00:26.988Z,43.44
2023-04-22T21:02:55.165Z,43.36
2023-04-22T21:05:23.093Z,43.21
2023-04-22T21:07:52.496Z,43.31
2023-04-22T21:10:21.818Z,43.09
2023-04-22T21:12:49.770Z,43.12
2023-04-22T21:15:17.751Z,43.28
2023-04-22T21:17:52.481Z,43.29
2023-04-22T21:20:24.075Z,43.43
2023-04-22T21:22:53.683Z,43.24
2023-04-22T21:25:22.415Z,43.22
2023-04-22T21:27:50.301Z,43.17
2023-04-22T21:30:18.424Z,43.36
2023-04-22T21:32:45.995Z,43.22
2023-04-22T21:35:13.666Z,43.29
2023-04-22T21:37:41.245Z,43.27
2023-04-22T21:40:12.826Z,43.35
2023-04-22T21:42:41.566Z,43.25
2023-04-22T21:45:09.600Z,43.26
2023-04-22T21:47:37.069Z,42.98
2023-04-22T21:50:05.384Z,43.23
2023-04-22T21:52:32.931Z,43.24
2023-04-22T21:55:00.542Z,43.35
2023-04-22T21:57:28.046Z,43.32
2023-04-22T21:59:55.899Z,43.16
2023-04-22T22:02:23.892Z,43.22
2023-04-22T22:04:51.935Z,43.43
2023-04-22T22:07:20.058Z,43.65
2023-04-22T22:09:47.585Z,43.70
2023-04-22T22:12:15.655Z,43.89
2023-04-22T22:14:43.410Z,43.92
2023-04-22T22:17:11.630Z,43.88
2023-04-22T22:19:39.148Z,43.97
2023-04-22T22:22:06.704Z,44.15
2023-04-22T22:24:34.260Z,44.17
2023-04-22T22:27:01.916Z,44.14
2023-04-22T22:29:29.404Z,44.22
2023-04-22T22:31:57.573Z,44.23
2023-04-22T22:34:25.062Z,44.31
2023-04-22T22:36:52.625Z,44.30
2023-04-22T22:39:20.123Z,44.35
2023-04-22T22:41:47.641Z,44.59
2023-04-22T22:44:15.192Z,44.58
2023-04-22T22:46:42.921Z,44.61
2023-04-22T22:49:10.725Z,44.60
2023-04-22T22:51:38.471Z,44.69
2023-04-22T22:54:06.740Z,44.80
2023-04-22T22:56:34.561Z,44.70
2023-04-22T22:59:02.086Z,44.97
2023-04-22T23:01:29.633Z,44.85
2023-04-22T23:03:57.369Z,45.05
2023-04-22T23:06:25.024Z,45.21
2023-04-22T23:08:52.533Z,45.41
2023-04-22T23:11:20.021Z,45.50
2023-04-22T23:13:47.741Z,45.56
2023-04-22T23:16:15.567Z,45.43
2023-04-22T23:18:44.853Z,45.33
2023-04-22T23:21:12.709Z,45.18
2023-04-22T23:23:41.021Z,45.33
2023-04-22T23:26:09.262Z,45.13
2023-04-22T23:28:37.181Z,45.14
2023-04-22T23:31:08.982Z,45.13
2023-04-22T23:33:42.140Z,45.00
2023-04-22T23:36:12.490Z,44.95
2023-04-22T23:38:40.090Z,44.88
2023-04-22T23:41:07.577Z,44.82
2023-04-22T23:43:35.075Z,44.79
2023-04-22T23:46:02.648Z,44.62
2023-04-22T23:48:30.523Z,44.55
2023-04-22T23:50:58.191Z,44.64
2023-04-22T23:53:25.679Z,44.46
2023-04-22T23:55:53.650Z,44.62
2023-04-22T23:58:21.486Z,44.42
